Time;durP1;ratioP1;P1;durP2;ratioP2;P2;SDS_P1;SDS_P2;PMS_P1;PMS_P2;Temp;Humidity;BMP_temperature;BMP_pressure;BME280_temperature;BME280_humidity;BME280_pressure;Samples;Min_cycle;Max_cycle;Signal;HPM_P1;HPM_P2
2022/12/01 00:00:34;;;;;;;43.80;36.65;;;2.30;99.90;;;;;;5052597;28;20032;-63
2022/12/01 00:03:00;;;;;;;40.30;34.63;;;2.30;99.90;;;;;;5053282;28;20029;-64
2022/12/01 00:05:26;;;;;;;40.92;34.85;;;2.50;99.90;;;;;;5052685;28;20029;-64
2022/12/01 00:07:51;;;;;;;48.88;39.80;;;2.60;99.90;;;;;;5052481;28;20052;-64
2022/12/01 00:10:27;;;;;;;42.65;36.03;;;2.40;99.90;;;;;;5052627;28;20057;-64
2022/12/01 00:12:57;;;;;;;44.55;35.90;;;2.50;99.90;;;;;;5052694;28;20047;-64
2022/12/01 00:15:26;;;;;;;40.85;35.47;;;2.80;99.90;;;;;;5052685;28;20369;-64
2022/12/01 00:17:51;;;;;;;45.00;34.22;;;2.80;99.90;;;;;;5052592;28;20063;-64
2022/12/01 00:20:17;;;;;;;41.75;36.10;;;2.90;99.90;;;;;;5052418;28;20470;-64
2022/12/01 00:22:44;;;;;;;42.13;33.38;;;3.10;99.90;;;;;;5052328;28;20071;-65
2022/12/01 00:25:11;;;;;;;40.50;33.60;;;3.20;99.90;;;;;;5052268;28;20037;-64
2022/12/01 00:27:37;;;;;;;37.75;32.42;;;3.20;99.90;;;;;;5052197;28;20032;-64
2022/12/01 00:30:05;;;;;;;39.97;32.47;;;3.20;99.90;;;;;;5052205;28;20411;-64
2022/12/01 00:32:30;;;;;;;40.05;32.75;;;3.20;99.90;;;;;;5052311;28;20413;-64
2022/12/01 00:34:56;;;;;;;36.83;31.27;;;3.30;99.90;;;;;;5052130;28;20021;-64
2022/12/01 00:37:22;;;;;;;39.33;32.92;;;3.30;99.90;;;;;;5052040;28;20086;-64
2022/12/01 00:39:48;;;;;;;36.72;32.20;;;3.30;99.90;;;;;;5051976;28;20037;-64
2022/12/01 00:42:13;;;;;;;36.78;30.45;;;3.30;99.90;;;;;;5051823;28;20067;-64
2022/12/01 00:44:39;;;;;;;41.13;31.85;;;3.40;99.90;;;;;;5052157;28;20021;-65
2022/12/01 00:47:05;;;;;;;37.60;31.17;;;3.40;99.90;;;;;;5052013;28;20497;-64
2022/12/01 00:49:31;;;;;;;36.08;30.90;;;3.30;99.90;;;;;;5052125;28;20490;-64
2022/12/01 00:51:56;;;;;;;39.50;30.88;;;3.30;99.90;;;;;;5051520;28;20041;-65
2022/12/01 00:54:22;;;;;;;36.78;30.30;;;3.40;99.90;;;;;;5051854;28;20043;-64
2022/12/01 00:56:48;;;;;;;34.53;28.55;;;3.60;99.90;;;;;;5051998;28;20445;-65
2022/12/01 00:59:13;;;;;;;35.92;29.20;;;3.60;99.90;;;;;;5050446;28;20028;-65
2022/12/01 01:01:39;;;;;;;36.03;29.73;;;3.50;99.90;;;;;;5051582;28;20043;-65
2022/12/01 01:04:05;;;;;;;34.55;28.48;;;3.60;99.90;;;;;;5051340;28;20060;-65
2022/12/01 01:06:31;;;;;;;34.80;27.95;;;3.60;99.90;;;;;;5050955;28;20476;-65
2022/12/01 01:08:57;;;;;;;36.45;29.80;;;3.40;99.90;;;;;;5051612;28;20029;-65
2022/12/01 01:11:23;;;;;;;36.33;28.02;;;3.40;99.90;;;;;;5051445;28;20041;-64
2022/12/01 01:13:49;;;;;;;36.72;29.65;;;3.50;99.90;;;;;;5051507;28;20032;-65
2022/12/01 01:16:18;;;;;;;37.20;29.92;;;3.30;99.90;;;;;;5051849;28;20029;-65
2022/12/01 01:18:44;;;;;;;33.67;27.92;;;3.30;99.90;;;;;;5051593;28;20045;-65
2022/12/01 01:21:16;;;;;;;35.63;28.30;;;3.30;99.90;;;;;;5051225;28;20483;-64
2022/12/01 01:23:42;;;;;;;35.30;27.43;;;3.40;99.90;;;;;;5051417;28;20025;-64
2022/12/01 01:26:13;;;;;;;34.35;27.35;;;3.30;99.90;;;;;;5051257;28;20437;-64
2022/12/01 01:28:40;;;;;;;35.67;27.63;;;3.50;99.90;;;;;;5051492;28;20102;-65
2022/12/01 01:31:11;;;;;;;32.80;26.67;;;3.40;99.90;;;;;;5051205;28;20037;-65
2022/12/01 01:33:37;;;;;;;31.73;26.73;;;3.30;99.90;;;;;;5051361;28;20033;-65
2022/12/01 01:36:04;;;;;;;36.08;28.50;;;3.30;99.90;;;;;;5050693;28;20017;-64
2022/12/01 01:38:30;;;;;;;37.50;28.63;;;3.20;99.90;;;;;;5051531;28;20493;-65
2022/12/01 01:40:56;;;;;;;41.03;31.08;;;3.20;99.90;;;;;;5050843;28;20071;-65
2022/12/01 01:43:48;;;;;;;39.85;30.63;;;3.00;99.90;;;;;;5051345;28;20036;-64
2022/12/01 01:46:17;;;;;;;45.30;32.03;;;2.90;99.90;;;;;;5051225;28;20563;-65
2022/12/01 01:48:49;;;;;;;40.33;29.58;;;2.80;99.90;;;;;;5050771;28;20067;-64
2022/12/01 01:51:17;;;;;;;37.97;29.25;;;2.70;99.90;;;;;;5051177;28;20028;-65
2022/12/01 01:53:45;;;;;;;38.20;28.45;;;2.90;99.90;;;;;;5051052;28;20037;-65
2022/12/01 01:56:11;;;;;;;42.45;30.55;;;3.00;99.90;;;;;;5051485;28;20436;-64
2022/12/01 01:58:38;;;;;;;40.35;28.63;;;2.90;99.90;;;;;;5050885;28;20055;-65
2022/12/01 02:01:05;;;;;;;37.30;28.33;;;3.00;99.90;;;;;;5050411;28;20027;-64
2022/12/01 02:03:34;;;;;;;39.28;27.73;;;3.00;99.90;;;;;;5050879;28;20490;-64
2022/12/01 02:06:00;;;;;;;33.33;26.55;;;3.20;99.90;;;;;;5051098;28;20028;-64
2022/12/01 02:08:26;;;;;;;40.00;28.50;;;3.10;99.90;;;;;;5051145;28;20499;-64
2022/12/01 02:11:12;;;;;;;39.10;29.20;;;3.00;99.90;;;;;;5051442;28;20065;-64
2022/12/01 02:13:50;;;;;;;41.45;29.90;;;3.00;99.90;;;;;;5051500;28;20032;-65
2022/12/01 02:16:29;;;;;;;37.38;27.35;;;2.90;99.90;;;;;;5052245;28;20044;-65
2022/12/01 02:19:32;;;;;;;32.55;26.67;;;3.10;99.90;;;;;;5054888;28;20032;-64
2022/12/01 02:21:58;;;;;;;34.65;24.90;;;3.00;99.90;;;;;;5055035;28;20481;-64
2022/12/01 02:24:49;;;;;;;33.25;27.17;;;2.90;99.90;;;;;;5054903;28;20109;-64
2022/12/01 02:27:17;;;;;;;34.30;26.38;;;2.90;99.90;;;;;;5054924;28;20021;-64
2022/12/01 02:30:04;;;;;;;36.08;25.38;;;3.10;99.90;;;;;;5055361;28;20025;-65
2022/12/01 02:32:46;;;;;;;35.40;26.55;;;3.10;99.90;;;;;;5054572;28;20044;-64
2022/12/01 02:35:49;;;;;;;34.25;26.35;;;2.90;99.90;;;;;;5054795;28;20362;-65
2022/12/01 02:38:27;;;;;;;35.58;27.35;;;3.10;99.90;;;;;;5032236;28;20072;-65
2022/12/01 02:41:11;;;;;;;41.58;29.33;;;2.90;99.90;;;;;;5032256;28;20038;-65
2022/12/01 02:43:45;;;;;;;38.40;27.75;;;2.70;99.90;;;;;;5032419;28;20444;-65
2022/12/01 02:46:34;;;;;;;34.83;27.30;;;2.70;99.90;;;;;;5032261;28;20025;-65
2022/12/01 02:49:06;;;;;;;42.55;30.65;;;2.60;99.90;;;;;;5031957;28;20042;-65
2022/12/01 02:51:35;;;;;;;45.38;30.63;;;2.50;99.90;;;;;;5032107;28;20026;-64
2022/12/01 02:54:02;;;;;;;41.85;30.17;;;2.40;99.90;;;;;;5031947;28;20056;-64
2022/12/01 02:56:28;;;;;;;41.53;32.42;;;2.10;99.90;;;;;;5032252;28;20032;-64
2022/12/01 02:58:54;;;;;;;38.03;28.13;;;2.30;99.90;;;;;;5015433;28;20452;-64
2022/12/01 03:02:01;;;;;;;42.78;29.02;;;2.40;99.90;;;;;;5031842;28;20038;-64
2022/12/01 03:04:38;;;;;;;40.47;27.98;;;2.30;99.90;;;;;;5032123;28;20029;-64
2022/12/01 03:07:32;;;;;;;35.28;27.10;;;2.40;99.90;;;;;;5031753;28;20034;-64
2022/12/01 03:10:35;;;;;;;30.85;25.83;;;2.40;99.90;;;;;;5031896;28;20425;-64
2022/12/01 03:13:19;;;;;;;39.47;31.45;;;2.20;99.90;;;;;;5019437;28;20405;-64
2022/12/01 03:15:58;;;;;;;;;;;2.20;99.90;;;;;;5054240;28;20028;-64
2022/12/01 03:18:38;;;;;;;33.88;24.95;;;2.30;99.90;;;;;;5054322;28;19904;-64
2022/12/01 03:21:27;;;;;;;35.20;26.85;;;2.30;99.90;;;;;;5054124;28;20124;-64
2022/12/01 03:24:00;;;;;;;34.22;25.85;;;2.30;99.90;;;;;;5054108;28;20052;-64
2022/12/01 03:26:30;;;;;;;33.40;24.10;;;2.40;99.90;;;;;;5053909;28;20017;-64
2022/12/01 03:29:20;;;;;;;34.70;25.38;;;2.40;99.90;;;;;;5052786;28;20053;-64
2022/12/01 03:32:01;;;;;;;34.92;25.58;;;2.40;99.90;;;;;;5053359;28;20037;-64
2022/12/01 03:35:03;;;;;;;32.90;24.52;;;2.30;99.90;;;;;;5054054;28;20021;-64
2022/12/01 03:37:39;;;;;;;30.10;23.10;;;2.40;99.90;;;;;;5034052;28;20107;-64
2022/12/01 03:40:09;;;;;;;31.85;24.33;;;2.50;99.90;;;;;;5033348;28;20069;-64
2022/12/01 03:43:06;;;;;;;27.77;23.10;;;2.30;99.90;;;;;;5033521;28;20083;-64
2022/12/01 03:45:51;;;;;;;32.95;24.40;;;2.20;99.90;;;;;;5033840;28;20159;-64
2022/12/01 03:48:17;;;;;;;35.75;24.92;;;2.30;99.90;;;;;;5033564;28;20017;-64
2022/12/01 03:50:52;;;;;;;39.10;26.48;;;2.10;99.90;;;;;;5033172;28;20033;-64
2022/12/01 03:53:23;;;;;;;32.30;24.05;;;2.00;99.90;;;;;;5033299;28;20447;-64
2022/12/01 03:55:54;;;;;;;35.88;24.77;;;2.30;99.90;;;;;;5033904;28;20017;-64
2022/12/01 03:58:35;;;;;;;33.47;24.58;;;2.20;99.90;;;;;;5033644;28;20026;-64
2022/12/01 04:01:02;;;;;;;35.83;25.02;;;2.20;99.90;;;;;;5039108;28;20377;-64
2022/12/01 04:03:28;;;;;;;36.08;25.08;;;2.10;99.90;;;;;;5052962;28;20401;-64
2022/12/01 04:05:54;;;;;;;40.67;30.33;;;2.10;99.90;;;;;;5053098;28;20034;-64
2022/12/01 04:08:20;;;;;;;46.17;37.35;;;1.90;99.90;;;;;;5052960;28;20029;-64
2022/12/01 04:10:46;;;;;;;48.00;36.95;;;1.80;99.90;;;;;;5052934;28;20025;-64
2022/12/01 04:13:21;;;;;;;56.38;38.97;;;1.60;99.90;;;;;;5053158;28;20037;-64
2022/12/01 04:15:50;;;;;;;48.78;33.90;;;1.40;99.90;;;;;;5052578;28;20139;-64
2022/12/01 04:18:16;;;;;;;45.05;31.92;;;1.40;99.90;;;;;;5052790;28;20473;-64
2022/12/01 04:20:43;;;;;;;36.35;27.00;;;1.30;99.90;;;;;;5052677;28;20104;-64
2022/12/01 04:23:09;;;;;;;47.95;30.42;;;1.20;99.90;;;;;;5053292;28;20039;-64
2022/12/01 04:25:35;;;;;;;48.50;33.47;;;1.10;99.90;;;;;;5052773;28;20150;-64
2022/12/01 04:28:00;;;;;;;44.35;30.17;;;1.00;99.90;;;;;;5052604;28;20045;-64
2022/12/01 04:30:26;;;;;;;45.28;30.42;;;1.00;99.90;;;;;;5052286;28;20025;-64
2022/12/01 04:32:52;;;;;;;48.10;30.23;;;1.00;99.90;;;;;;5052608;28;20123;-65
2022/12/01 04:35:17;;;;;;;39.55;28.05;;;0.90;99.90;;;;;;5052336;28;20033;-64
2022/12/01 04:37:43;;;;;;;45.50;28.55;;;0.80;99.90;;;;;;5052341;28;20374;-64
2022/12/01 04:40:09;;;;;;;53.83;33.53;;;0.70;99.90;;;;;;5052089;28;20445;-64
2022/12/01 04:42:35;;;;;;;384.52;49.05;;;0.60;99.90;;;;;;5052281;28;20025;-64
2022/12/01 04:45:01;;;;;;;40.15;27.65;;;0.60;99.90;;;;;;5052012;28;20596;-64
2022/12/01 04:47:26;;;;;;;74.85;36.60;;;0.50;99.90;;;;;;5052335;28;20060;-64
2022/12/01 04:49:53;;;;;;;35.63;25.92;;;0.50;99.90;;;;;;5052459;28;20021;-64
2022/12/01 04:52:19;;;;;;;38.55;27.67;;;0.30;99.90;;;;;;5051934;28;20506;-64
2022/12/01 04:54:44;;;;;;;40.10;28.15;;;0.20;99.90;;;;;;5052073;28;20029;-64
2022/12/01 04:57:10;;;;;;;44.92;30.40;;;0.20;99.90;;;;;;5052212;28;20074;-62
2022/12/01 04:59:36;;;;;;;51.92;32.17;;;0.20;99.90;;;;;;5052146;28;20032;-64
2022/12/01 05:02:02;;;;;;;42.83;28.83;;;0.20;99.90;;;;;;5051633;28;20028;-64
2022/12/01 05:04:30;;;;;;;37.90;27.90;;;0.10;99.90;;;;;;5051836;28;20052;-64
2022/12/01 05:06:55;;;;;;;47.25;33.65;;;0.30;99.90;;;;;;5052158;28;20025;-64
2022/12/01 05:09:21;;;;;;;51.65;35.80;;;0.40;99.90;;;;;;5051956;28;20371;-64
2022/12/01 05:11:47;;;;;;;45.95;32.38;;;0.30;99.90;;;;;;5051431;28;20129;-64
2022/12/01 05:14:12;;;;;;;60.17;37.97;;;0.10;99.90;;;;;;5050295;28;20060;-64
2022/12/01 05:16:38;;;;;;;52.25;35.53;;;-0.10;99.90;;;;;;5052104;28;20021;-64
2022/12/01 05:21:50;;;;;;;48.60;35.58;;;-0.20;99.90;;;;;;5051923;28;20389;-64
2022/12/01 05:24:17;;;;;;;46.33;34.80;;;-0.30;99.90;;;;;;5051461;28;20078;-64
2022/12/01 05:26:43;;;;;;;42.22;33.55;;;-0.40;99.90;;;;;;5051136;28;20105;-64
2022/12/01 05:29:10;;;;;;;42.03;31.73;;;-0.40;99.90;;;;;;5051577;28;20060;-65
2022/12/01 05:31:36;;;;;;;49.03;36.42;;;-0.40;99.90;;;;;;5051337;28;20055;-64
2022/12/01 05:34:02;;;;;;;37.63;30.60;;;-0.50;99.90;;;;;;5051445;28;20049;-64
2022/12/01 05:36:28;;;;;;;42.88;32.25;;;-0.50;99.90;;;;;;5051414;28;20060;-64
2022/12/01 05:38:54;;;;;;;46.67;33.65;;;-0.50;99.90;;;;;;5049997;28;20040;-64
2022/12/01 05:41:20;;;;;;;49.85;34.50;;;-0.50;99.90;;;;;;5051002;28;20132;-64
2022/12/01 05:43:46;;;;;;;35.55;28.92;;;-0.40;99.90;;;;;;5049914;28;20442;-64
2022/12/01 05:46:11;;;;;;;41.45;31.50;;;-0.50;99.90;;;;;;5051135;28;20033;-64
2022/12/01 05:48:37;;;;;;;52.58;36.42;;;-0.40;99.90;;;;;;5051668;28;20028;-64
2022/12/01 05:51:08;;;;;;;51.95;36.65;;;-0.60;99.90;;;;;;5050643;28;20083;-64
2022/12/01 05:53:34;;;;;;;54.08;35.53;;;-0.70;99.90;;;;;;5051014;28;20124;-63
2022/12/01 05:55:59;;;;;;;49.33;34.30;;;-0.60;99.90;;;;;;5050702;28;20144;-64
2022/12/01 05:58:25;;;;;;;58.47;38.53;;;-0.50;99.90;;;;;;5051025;28;20036;-64
2022/12/01 06:00:51;;;;;;;47.35;35.13;;;-0.50;99.90;;;;;;5050695;28;20025;-64
2022/12/01 06:03:16;;;;;;;52.75;34.28;;;-0.50;99.90;;;;;;5050950;28;20017;-63
2022/12/01 06:05:42;;;;;;;43.45;31.95;;;-0.60;99.90;;;;;;5051095;28;20029;-64
2022/12/01 06:08:08;;;;;;;45.28;31.50;;;-0.60;99.90;;;;;;5050972;28;20055;-62
2022/12/01 06:10:33;;;;;;;50.22;33.67;;;-0.50;99.90;;;;;;5050907;28;20021;-64
2022/12/01 06:12:59;;;;;;;44.33;30.67;;;-0.60;99.90;;;;;;5050528;28;20025;-64
2022/12/01 06:15:25;;;;;;;48.22;33.00;;;-0.50;99.90;;;;;;5050899;28;20021;-63
2022/12/01 06:17:51;;;;;;;53.72;36.88;;;-0.40;99.90;;;;;;5050957;28;20146;-64
2022/12/01 06:20:17;;;;;;;38.13;28.48;;;-0.40;99.90;;;;;;5050680;28;20588;-64
2022/12/01 06:22:43;;;;;;;45.70;32.97;;;-0.50;99.90;;;;;;5051108;28;20138;-64
2022/12/01 06:25:09;;;;;;;60.00;39.03;;;-0.40;99.90;;;;;;5050518;28;20052;-64
2022/12/01 06:27:34;;;;;;;36.90;28.35;;;-0.50;99.90;;;;;;5050532;28;20511;-61
2022/12/01 06:30:00;;;;;;;49.55;37.70;;;-0.40;99.90;;;;;;5050591;28;20017;-62
2022/12/01 06:32:26;;;;;;;60.42;38.70;;;-0.50;99.90;;;;;;5050922;28;20041;-63
2022/12/01 06:34:51;;;;;;;53.42;35.70;;;-0.60;99.90;;;;;;5050588;28;20029;-62
2022/12/01 06:37:17;;;;;;;47.70;33.15;;;-0.70;99.90;;;;;;5050502;28;20041;-63
2022/12/01 06:39:43;;;;;;;50.85;35.33;;;-0.70;99.90;;;;;;5050407;28;20132;-63
2022/12/01 06:42:09;;;;;;;49.70;35.30;;;-0.80;99.90;;;;;;5050524;28;20230;-63
2022/12/01 06:44:34;;;;;;;42.50;31.85;;;-0.60;99.90;;;;;;5050425;28;20021;-62
2022/12/01 06:47:00;;;;;;;47.50;34.38;;;-0.60;99.90;;;;;;5050499;28;20044;-63
2022/12/01 06:49:26;;;;;;;38.00;29.70;;;-0.70;99.90;;;;;;5050516;28;20417;-63
2022/12/01 06:51:52;;;;;;;51.10;37.47;;;-0.50;99.90;;;;;;5050445;28;20574;-62
2022/12/01 06:54:17;;;;;;;48.53;34.97;;;-0.70;99.90;;;;;;5050845;28;20028;-62
2022/12/01 06:56:44;;;;;;;48.53;33.42;;;-0.80;99.90;;;;;;5050772;28;20163;-62
2022/12/01 06:59:10;;;;;;;48.30;35.70;;;-0.80;99.90;;;;;;5050907;28;20025;-61
2022/12/01 07:01:36;;;;;;;53.70;39.38;;;-0.90;99.90;;;;;;5050540;28;20032;-62
2022/12/01 07:04:02;;;;;;;43.85;34.08;;;-1.00;99.90;;;;;;5052771;28;20331;-62
2022/12/01 07:06:31;;;;;;;139.05;88.07;;;-0.90;99.90;;;;;;5054390;28;20029;-62
2022/12/01 07:08:57;;;;;;;87.32;64.28;;;-0.90;99.90;;;;;;5054011;28;20024;-63
2022/12/01 07:11:23;;;;;;;69.65;46.15;;;-0.80;99.90;;;;;;5054097;28;20047;-63
2022/12/01 07:13:54;;;;;;;65.03;42.42;;;-0.90;99.90;;;;;;5054259;28;20222;-63
2022/12/01 07:16:21;;;;;;;70.13;44.08;;;-0.80;99.90;;;;;;5054825;28;20028;-63
2022/12/01 07:18:46;;;;;;;82.68;48.95;;;-0.70;99.90;;;;;;5054431;28;20025;-62
2022/12/01 07:21:14;;;;;;;75.28;51.05;;;-0.70;99.90;;;;;;5054427;28;20029;-63
2022/12/01 07:23:40;;;;;;;98.20;64.40;;;-0.50;99.90;;;;;;5054045;28;20379;-64
2022/12/01 07:26:10;;;;;;;83.65;56.60;;;-0.50;99.90;;;;;;5054104;28;20104;-62
2022/12/01 07:28:36;;;;;;;94.28;63.67;;;-0.50;99.90;;;;;;5054494;28;20052;-64
2022/12/01 07:31:03;;;;;;;90.68;61.58;;;-0.50;99.90;;;;;;5054020;28;20061;-62
2022/12/01 07:33:29;;;;;;;92.13;63.35;;;-0.40;99.90;;;;;;5053474;28;20037;-63
2022/12/01 07:35:55;;;;;;;91.30;62.60;;;-0.50;99.90;;;;;;5053933;28;20028;-62
2022/12/01 07:38:21;;;;;;;83.35;55.63;;;-0.50;99.90;;;;;;5054123;28;20630;-63
2022/12/01 07:40:46;;;;;;;61.88;43.63;;;-0.50;99.90;;;;;;5052594;28;20048;-63
2022/12/01 07:43:12;;;;;;;62.83;39.30;;;-0.20;99.90;;;;;;5053744;28;20487;-63
2022/12/01 07:45:38;;;;;;;41.45;29.98;;;-0.20;99.90;;;;;;5054018;28;20029;-64
2022/12/01 07:48:03;;;;;;;34.67;25.13;;;-0.20;99.90;;;;;;5053912;28;20108;-64
2022/12/01 07:50:29;;;;;;;58.50;39.03;;;0.00;99.90;;;;;;5053612;28;20017;-64
2022/12/01 07:52:55;;;;;;;51.03;35.65;;;-0.10;99.90;;;;;;5052957;28;20033;-64
2022/12/01 07:55:20;;;;;;;47.75;34.90;;;-0.10;99.90;;;;;;5053660;28;20610;-64
2022/12/01 07:57:46;;;;;;;35.35;24.38;;;0.10;99.90;;;;;;5053126;28;20074;-63
2022/12/01 08:00:12;;;;;;;43.35;31.83;;;0.40;99.90;;;;;;5053151;28;20548;-63
2022/12/01 08:02:38;;;;;;;55.05;39.40;;;0.50;99.90;;;;;;5052701;28;20040;-64
2022/12/01 08:05:04;;;;;;;63.50;42.72;;;0.50;99.90;;;;;;5052654;28;20025;-64
2022/12/01 08:07:30;;;;;;;51.40;38.05;;;0.90;99.90;;;;;;5052817;28;20036;-63
2022/12/01 08:09:56;;;;;;;72.32;53.05;;;1.30;99.90;;;;;;5052925;28;20021;-64
2022/12/01 08:12:21;;;;;;;52.60;34.40;;;1.20;99.90;;;;;;5052741;28;20036;-65
2022/12/01 08:14:47;;;;;;;49.60;31.27;;;1.40;99.90;;;;;;5052633;28;20025;-65
2022/12/01 08:17:13;;;;;;;44.05;29.25;;;1.50;99.90;;;;;;5052874;28;20578;-64
2022/12/01 08:19:38;;;;;;;48.35;29.38;;;2.10;99.90;;;;;;5052399;28;20032;-64
2022/12/01 08:22:04;;;;;;;42.45;25.23;;;1.80;99.90;;;;;;5052318;28;20036;-64
2022/12/01 08:24:30;;;;;;;60.13;44.47;;;2.00;99.90;;;;;;5053569;28;20029;-64
2022/12/01 08:26:55;;;;;;;51.25;46.03;;;1.90;99.90;;;;;;5052532;28;20402;-65
2022/12/01 08:29:21;;;;;;;29.02;24.13;;;2.40;99.90;;;;;;5052410;28;20029;-64
2022/12/01 08:31:47;;;;;;;25.17;19.95;;;2.50;99.90;;;;;;5052413;28;20114;-65
2022/12/01 08:34:13;;;;;;;33.88;24.35;;;2.40;99.90;;;;;;5053296;28;20562;-65
2022/12/01 08:36:38;;;;;;;25.77;20.58;;;2.80;99.90;;;;;;5053198;28;20308;-65
2022/12/01 08:39:07;;;;;;;18.67;16.65;;;2.60;99.90;;;;;;5053547;28;20032;-65
2022/12/01 08:41:33;;;;;;;17.52;15.73;;;3.50;99.90;;;;;;5052079;28;20059;-64
2022/12/01 08:43:59;;;;;;;17.45;15.60;;;4.20;99.90;;;;;;5052169;28;20223;-64
2022/12/01 08:46:32;;;;;;;22.00;16.50;;;3.70;99.90;;;;;;5052286;28;20551;-66
2022/12/01 08:48:58;;;;;;;16.35;13.98;;;3.80;99.90;;;;;;5051017;28;20048;-65
2022/12/01 08:51:24;;;;;;;15.93;13.25;;;4.50;99.90;;;;;;5048181;28;20037;-66
2022/12/01 08:53:50;;;;;;;23.40;17.08;;;5.20;99.90;;;;;;5050129;28;20375;-66
2022/12/01 08:56:19;;;;;;;22.27;17.23;;;5.20;99.90;;;;;;5048279;28;20036;-65
2022/12/01 08:58:45;;;;;;;23.40;20.95;;;5.40;99.90;;;;;;5050474;28;20196;-62
2022/12/01 09:01:13;;;;;;;21.70;15.63;;;5.60;99.90;;;;;;5051881;28;20112;-63
2022/12/01 09:03:39;;;;;;;17.40;14.20;;;6.20;99.90;;;;;;5051321;28;20025;-65
2022/12/01 09:06:08;;;;;;;17.88;15.98;;;6.80;99.90;;;;;;5049550;28;20035;-65
2022/12/01 09:08:34;;;;;;;19.15;16.95;;;6.90;99.90;;;;;;5050364;28;20108;-65
2022/12/01 09:11:04;;;;;;;17.35;15.60;;;6.90;99.90;;;;;;5049917;28;20029;-64
2022/12/01 09:13:31;;;;;;;17.45;15.63;;;8.00;99.90;;;;;;5050330;28;20025;-64
2022/12/01 09:16:02;;;;;;;16.70;14.90;;;9.20;99.90;;;;;;5048864;28;20033;-66
2022/12/01 09:18:28;;;;;;;15.18;13.52;;;8.90;99.90;;;;;;5050328;28;20036;-65
2022/12/01 09:20:55;;;;;;;24.90;16.20;;;9.10;99.90;;;;;;5049946;28;20025;-65
2022/12/01 09:23:21;;;;;;;25.48;18.70;;;10.00;99.90;;;;;;5050199;28;20021;-65
2022/12/01 09:25:47;;;;;;;30.60;27.30;;;9.70;99.90;;;;;;5047893;28;20028;-66
2022/12/01 09:28:13;;;;;;;26.25;18.42;;;9.50;99.90;;;;;;5049885;28;20028;-65
2022/12/01 09:30:39;;;;;;;26.65;22.52;;;10.00;99.90;;;;;;5051164;28;20029;-64
2022/12/01 09:33:05;;;;;;;24.52;21.98;;;11.00;99.90;;;;;;5049122;28;20386;-64
2022/12/01 09:35:31;;;;;;;27.30;24.45;;;10.90;99.90;;;;;;5050115;28;20031;-64
2022/12/01 09:37:57;;;;;;;19.48;17.25;;;10.90;99.90;;;;;;5049185;28;20103;-64
2022/12/01 09:40:35;;;;;;;22.25;19.48;;;12.00;99.90;;;;;;5050714;28;20053;-65
2022/12/01 09:43:04;;;;;;;22.02;17.38;;;12.20;99.90;;;;;;5050769;28;20025;-65
2022/12/01 09:45:35;;;;;;;17.95;16.10;;;13.30;99.90;;;;;;5047976;28;20497;-64
2022/12/01 09:48:03;;;;;;;18.67;16.77;;;14.30;99.90;;;;;;5048146;28;20161;-64
2022/12/01 09:50:30;;;;;;;17.98;16.08;;;14.20;99.90;;;;;;5050740;28;20359;-65
2022/12/01 09:53:01;;;;;;;19.50;17.25;;;14.00;99.90;;;;;;5050163;28;20029;-65
2022/12/01 09:55:29;;;;;;;19.58;17.50;;;14.00;99.90;;;;;;5050406;28;20057;-65
2022/12/01 09:57:56;;;;;;;21.52;17.77;;;14.00;99.90;;;;;;5048945;28;20057;-64
2022/12/01 10:00:25;;;;;;;18.98;16.80;;;13.60;99.90;;;;;;5050288;28;20029;-65
2022/12/01 10:03:18;;;;;;;17.73;15.52;;;15.00;99.90;;;;;;5049950;28;20102;-65
2022/12/01 10:05:56;;;;;;;16.13;14.50;;;15.10;99.90;;;;;;5049265;28;20096;-65
2022/12/01 10:08:28;;;;;;;15.32;13.82;;;15.10;99.90;;;;;;5049739;28;20025;-65
2022/12/01 10:10:59;;;;;;;16.40;14.43;;;15.20;99.90;;;;;;5050122;28;20483;-65
2022/12/01 10:13:27;;;;;;;18.00;14.50;;;15.90;99.90;;;;;;5050031;28;20044;-66
2022/12/01 10:15:58;;;;;;;22.38;16.05;;;16.50;99.90;;;;;;5049173;28;20014;-65
2022/12/01 10:18:54;;;;;;;22.67;15.02;;;15.80;99.90;;;;;;5049652;28;20033;-65
2022/12/01 10:21:41;;;;;;;42.38;20.58;;;16.60;99.90;;;;;;5049906;28;20508;-65
2022/12/01 10:24:25;;;;;;;34.00;16.50;;;16.50;99.90;;;;;;5050189;28;20088;-64
2022/12/01 10:27:14;;;;;;;18.58;15.65;;;16.90;99.90;;;;;;5048862;28;20106;-65
2022/12/01 10:29:47;;;;;;;20.65;15.93;;;16.90;99.90;;;;;;5049654;28;20037;-65
2022/12/01 10:32:20;;;;;;;21.48;17.38;;;14.60;99.90;;;;;;5049534;28;20033;-65
2022/12/01 10:34:47;;;;;;;19.20;14.65;;;14.40;99.90;;;;;;5049742;28;20025;-65
2022/12/01 10:37:20;;;;;;;24.60;17.20;;;14.20;99.90;;;;;;5048677;28;20100;-66
2022/12/01 10:39:49;;;;;;;18.30;15.85;;;14.60;99.90;;;;;;5053386;28;20033;-65
2022/12/01 10:42:35;;;;;;;20.48;16.50;;;13.50;99.90;;;;;;5053547;28;20360;-66
2022/12/01 10:45:07;;;;;;;18.70;14.70;;;16.40;99.90;;;;;;5054118;28;20017;-66
2022/12/01 10:47:32;;;;;;;17.02;14.38;;;15.60;99.90;;;;;;5052734;28;20033;-64
2022/12/01 10:49:58;;;;;;;17.73;14.82;;;16.00;99.90;;;;;;5053624;28;20466;-64
2022/12/01 10:52:40;;;;;;;16.52;14.55;;;14.60;99.90;;;;;;5053703;28;20036;-64
2022/12/01 10:55:21;;;;;;;18.90;14.05;;;13.60;99.90;;;;;;5053792;28;20021;-65
2022/12/01 10:57:48;;;;;;;18.63;16.63;;;14.20;99.90;;;;;;5052392;28;20101;-65
2022/12/01 11:00:25;;;;;;;17.92;14.48;;;16.60;99.90;;;;;;5053127;28;20025;-65
2022/12/01 11:02:51;;;;;;;18.63;13.88;;;14.30;99.90;;;;;;5033950;28;20183;-63
2022/12/01 11:05:25;;;;;;;17.90;14.45;;;13.20;99.90;;;;;;5033731;28;20021;-65
2022/12/01 11:07:51;;;;;;;17.33;14.15;;;14.70;99.90;;;;;;5049695;28;20025;-64
2022/12/01 11:10:18;;;;;;;19.08;14.00;;;15.20;99.90;;;;;;5052877;28;20017;-65
2022/12/01 11:12:52;;;;;;;23.10;17.80;;;13.30;99.90;;;;;;5052108;28;20037;-65
2022/12/01 11:15:49;;;;;;;18.45;14.05;;;13.80;99.90;;;;;;5052950;28;20025;-65
2022/12/01 11:18:36;;;;;;;16.38;14.07;;;14.60;99.90;;;;;;5049409;28;20086;-64
2022/12/01 11:21:24;;;;;;;133.15;87.28;;;15.30;99.90;;;;;;5053611;28;20473;-65
2022/12/01 11:23:52;;;;;;;16.15;13.68;;;17.00;99.90;;;;;;5053205;28;20549;-64
2022/12/01 11:26:19;;;;;;;17.88;14.07;;;15.40;99.90;;;;;;5052187;28;20563;-65
2022/12/01 11:29:01;;;;;;;18.77;16.77;;;14.10;99.90;;;;;;5052272;28;20040;-64
2022/12/01 11:31:48;;;;;;;17.05;14.00;;;13.90;99.90;;;;;;5052737;28;20551;-64
2022/12/01 11:34:34;;;;;;;17.45;11.95;;;15.40;99.90;;;;;;5053173;28;20357;-64
2022/12/01 11:37:04;;;;;;;16.55;13.57;;;13.70;99.90;;;;;;5051039;28;20481;-65
2022/12/01 11:39:37;;;;;;;15.98;12.13;;;13.20;99.90;;;;;;5052001;28;20024;-65
2022/12/01 11:42:15;;;;;;;15.38;12.85;;;11.90;99.90;;;;;;5052808;28;20045;-66
2022/12/01 11:44:54;;;;;;;15.00;12.35;;;12.80;99.90;;;;;;5052509;28;20079;-65
2022/12/01 11:47:25;;;;;;;15.75;13.00;;;11.70;99.90;;;;;;5051517;28;20025;-65
2022/12/01 11:49:59;;;;;;;14.93;12.60;;;12.70;99.90;;;;;;5051545;28;20025;-65
2022/12/01 11:52:27;;;;;;;16.10;13.25;;;12.40;99.90;;;;;;5052245;28;20037;-65
2022/12/01 11:55:11;;;;;;;15.45;12.65;;;12.20;99.90;;;;;;5052966;28;20055;-65
2022/12/01 11:57:40;;;;;;;16.40;14.02;;;12.70;99.90;;;;;;5051517;28;20086;-64
2022/12/01 12:00:17;;;;;;;17.52;14.57;;;13.20;99.90;;;;;;5052188;28;20087;-65
2022/12/01 12:03:01;;;;;;;19.70;14.98;;;12.20;99.90;;;;;;5044751;28;20516;-65
2022/12/01 12:05:57;;;;;;;24.83;20.42;;;11.30;99.90;;;;;;5052313;28;20029;-65
2022/12/01 12:08:41;;;;;;;18.23;15.00;;;12.50;99.90;;;;;;5051841;28;20033;-65
2022/12/01 12:11:34;;;;;;;15.18;13.57;;;11.90;99.90;;;;;;5052509;28;20032;-65
2022/12/01 12:14:32;;;;;;;17.52;13.75;;;11.60;99.90;;;;;;5046605;28;20040;-65
2022/12/01 12:17:01;;;;;;;18.83;14.02;;;11.60;99.90;;;;;;5051128;28;20052;-65
2022/12/01 12:19:38;;;;;;;17.90;13.82;;;11.60;99.90;;;;;;5051533;28;20036;-65
2022/12/01 12:22:22;;;;;;;16.55;13.50;;;12.30;99.90;;;;;;5051930;28;20021;-66
2022/12/01 12:25:03;;;;;;;18.05;14.48;;;11.20;99.90;;;;;;5052200;28;20510;-65
2022/12/01 12:27:39;;;;;;;16.45;12.60;;;11.40;99.90;;;;;;5050463;28;20029;-65
2022/12/01 12:30:11;;;;;;;20.42;13.75;;;11.40;99.90;;;;;;5051429;28;20104;-65
2022/12/01 12:33:06;;;;;;;15.73;13.35;;;11.20;99.90;;;;;;5051658;28;20037;-65
2022/12/01 12:36:02;;;;;;;15.73;12.98;;;10.90;99.90;;;;;;5051720;28;20029;-64
2022/12/01 12:38:53;;;;;;;14.68;12.50;;;11.40;99.90;;;;;;5033958;28;20578;-65
2022/12/01 12:41:30;;;;;;;18.35;14.00;;;12.00;99.90;;;;;;5051271;28;20107;-64
2022/12/01 12:44:06;;;;;;;17.40;14.30;;;11.80;99.90;;;;;;5051897;28;20025;-64
2022/12/01 12:46:47;;;;;;;28.17;18.95;;;11.60;99.90;;;;;;5050780;28;20452;-63
2022/12/01 12:49:26;;;;;;;58.03;35.97;;;11.10;99.90;;;;;;5051939;28;20025;-65
2022/12/01 12:51:59;;;;;;;176.43;82.70;;;11.70;99.90;;;;;;5051389;28;20029;-64
2022/12/01 12:54:42;;;;;;;18.90;13.32;;;12.60;99.90;;;;;;5051866;28;20169;-64